createdAt,value
2018-05-06T00:01:52.855Z,8.40
2018-05-06T00:04:56.189Z,8.40
2018-05-06T00:07:59.502Z,8.30
2018-05-06T00:11:04.343Z,8.20
2018-05-06T00:14:07.736Z,8.20
2018-05-06T00:17:11.141Z,8.30
2018-05-06T00:20:14.536Z,8.20
2018-05-06T00:23:17.956Z,8.20
2018-05-06T00:26:22.024Z,8.30
2018-05-06T00:29:25.428Z,8.30
2018-05-06T00:32:28.811Z,8.20
2018-05-06T00:35:32.130Z,8.20
2018-05-06T00:38:35.429Z,8.10
2018-05-06T00:41:38.749Z,8.10
2018-05-06T00:44:42.062Z,8.20
2018-05-06T00:47:46.167Z,8.20
2018-05-06T00:50:49.479Z,8.20
2018-05-06T00:53:53.651Z,8.30
2018-05-06T00:56:56.957Z,8.30
2018-05-06T01:00:00.360Z,8.30
2018-05-06T01:03:03.672Z,8.20
2018-05-06T01:06:06.997Z,8.10
2018-05-06T01:09:11.069Z,8.10
2018-05-06T01:12:14.403Z,8.10
2018-05-06T01:15:18.577Z,7.90
2018-05-06T01:18:21.919Z,7.90
2018-05-06T01:21:25.997Z,7.80
2018-05-06T01:24:29.324Z,7.80
2018-05-06T01:27:32.635Z,7.80
2018-05-06T01:30:36.742Z,7.80
2018-05-06T01:33:40.113Z,7.70
2018-05-06T01:36:43.450Z,7.70
2018-05-06T01:39:47.639Z,7.80
2018-05-06T01:42:51.016Z,7.80
2018-05-06T01:45:54.321Z,7.70
2018-05-06T01:48:57.702Z,7.60
2018-05-06T01:52:01.014Z,7.60
2018-05-06T01:55:04.363Z,7.50
2018-05-06T01:58:07.688Z,7.50
2018-05-06T02:01:11.022Z,7.50
2018-05-06T02:04:14.320Z,7.50
2018-05-06T02:07:17.640Z,7.50
2018-05-06T02:10:21.748Z,7.50
2018-05-06T02:13:25.130Z,7.50
2018-05-06T02:16:28.449Z,7.60
2018-05-06T02:19:31.801Z,7.60
2018-05-06T02:22:35.100Z,7.50
2018-05-06T02:25:38.425Z,7.50
2018-05-06T02:28:41.720Z,7.40
2018-05-06T02:31:45.129Z,7.40
2018-05-06T02:34:48.441Z,7.40
2018-05-06T02:37:51.808Z,7.40
2018-05-06T02:40:55.232Z,7.40
2018-05-06T02:43:58.585Z,7.30
2018-05-06T02:47:01.893Z,7.40
2018-05-06T02:50:05.237Z,7.50
2018-05-06T02:53:08.570Z,7.50
2018-05-06T02:56:12.721Z,7.50
2018-05-06T02:59:16.043Z,7.50
2018-05-06T03:02:19.431Z,7.60
2018-05-06T03:05:22.817Z,7.60
2018-05-06T03:08:27.185Z,7.70
2018-05-06T03:11:30.495Z,7.70
2018-05-06T03:14:34.584Z,7.80
2018-05-06T03:17:37.920Z,7.80
2018-05-06T03:20:41.247Z,7.80
2018-05-06T03:23:44.653Z,7.80
2018-05-06T03:26:48.004Z,7.80
2018-05-06T03:29:52.069Z,7.80
2018-05-06T03:32:55.477Z,7.80
2018-05-06T03:35:58.776Z,7.80
2018-05-06T03:39:02.193Z,7.80
2018-05-06T03:42:06.285Z,8.00
2018-05-06T03:45:09.647Z,7.90
2018-05-06T03:48:12.948Z,8.00
2018-05-06T03:51:16.398Z,8.10
2018-05-06T03:54:19.793Z,8.10
2018-05-06T03:57:41.211Z,8.10
2018-05-06T04:00:47.077Z,8.10
2018-05-06T04:03:50.406Z,8.10
2018-05-06T04:06:54.588Z,8.10
2018-05-06T04:09:58.759Z,8.10
2018-05-06T04:13:02.061Z,8.20
2018-05-06T04:16:05.392Z,8.30
2018-05-06T04:19:08.797Z,8.40
2018-05-06T04:22:12.120Z,8.40
2018-05-06T04:25:15.416Z,8.40
2018-05-06T04:28:18.802Z,8.40
2018-05-06T04:31:22.217Z,8.50
2018-05-06T04:34:25.553Z,8.60
2018-05-06T04:37:28.856Z,8.60
2018-05-06T04:40:32.189Z,8.70
2018-05-06T04:43:35.507Z,8.80
2018-05-06T04:46:38.915Z,8.90
2018-05-06T04:49:42.297Z,9.00
2018-05-06T04:52:45.694Z,9.20
2018-05-06T04:55:49.012Z,9.30
2018-05-06T04:58:52.357Z,9.40
2018-05-06T05:01:55.682Z,9.50
2018-05-06T05:04:59.106Z,9.60
2018-05-06T05:08:02.490Z,9.80
2018-05-06T05:11:05.880Z,9.90
2018-05-06T05:14:09.303Z,10.00
2018-05-06T05:17:12.697Z,10.10
2018-05-06T05:20:16.028Z,10.30
2018-05-06T05:23:20.144Z,10.60
2018-05-06T05:26:24.316Z,10.70
2018-05-06T05:29:27.675Z,10.70
2018-05-06T05:32:30.996Z,10.90
2018-05-06T05:35:34.417Z,11.00
2018-05-06T05:38:37.834Z,11.20
2018-05-06T05:41:41.984Z,11.50
2018-05-06T05:44:46.152Z,11.80
2018-05-06T05:47:49.559Z,11.70
2018-05-06T05:50:52.827Z,11.90
2018-05-06T05:53:56.176Z,12.00
2018-05-06T05:57:00.284Z,12.20
2018-05-06T06:00:04.399Z,12.30
2018-05-06T06:03:07.747Z,12.30
2018-05-06T06:06:11.190Z,12.50
2018-05-06T06:09:14.493Z,12.60
2018-05-06T06:12:17.827Z,12.90
2018-05-06T06:15:22.008Z,13.20
2018-05-06T06:18:25.452Z,13.20
2018-05-06T06:21:28.952Z,13.30
2018-05-06T06:24:32.311Z,13.50
2018-05-06T06:27:35.689Z,13.70
2018-05-06T06:30:39.052Z,13.90
2018-05-06T06:33:42.557Z,14.00
2018-05-06T06:36:45.888Z,14.20
2018-05-06T06:39:49.217Z,14.30
2018-05-06T06:42:52.694Z,14.50
2018-05-06T06:45:56.005Z,14.70
2018-05-06T06:48:59.336Z,14.90
2018-05-06T06:52:03.423Z,15.20
2018-05-06T06:55:06.760Z,15.20
2018-05-06T06:58:10.104Z,15.30
2018-05-06T07:01:13.510Z,15.30
2018-05-06T07:04:16.863Z,15.50
2018-05-06T07:07:20.221Z,15.70
2018-05-06T07:10:24.113Z,15.80
2018-05-06T07:13:27.458Z,15.90
2018-05-06T07:16:31.562Z,16.00
2018-05-06T07:19:35.766Z,16.30
2018-05-06T07:22:39.072Z,16.30
2018-05-06T07:25:42.416Z,16.50
2018-05-06T07:28:45.724Z,16.70
2018-05-06T07:31:49.145Z,16.90
2018-05-06T07:34:52.532Z,17.00
2018-05-06T07:37:55.977Z,17.20
2018-05-06T07:41:00.048Z,17.30
2018-05-06T07:44:03.376Z,17.30
2018-05-06T07:47:06.782Z,17.60
2018-05-06T07:50:10.112Z,17.60
2018-05-06T07:53:13.433Z,17.70
2018-05-06T07:56:16.785Z,17.90
2018-05-06T07:59:20.122Z,17.90
2018-05-06T08:02:23.486Z,18.00
2018-05-06T08:05:27.576Z,18.20
2018-05-06T08:08:30.933Z,18.20
2018-05-06T08:11:34.254Z,18.20
2018-05-06T08:14:37.700Z,18.20
2018-05-06T08:17:41.799Z,18.40
2018-05-06T08:20:45.192Z,18.40
2018-05-06T08:23:48.537Z,18.60
2018-05-06T08:26:52.701Z,18.60
2018-05-06T08:29:56.022Z,18.50
2018-05-06T08:32:59.430Z,18.40
2018-05-06T08:36:02.813Z,18.70
2018-05-06T08:39:06.153Z,18.60
2018-05-06T08:42:09.501Z,18.70
2018-05-06T08:45:12.818Z,18.50
2018-05-06T08:48:17.024Z,18.70
2018-05-06T08:51:20.347Z,18.70
2018-05-06T08:54:24.445Z,18.60
2018-05-06T08:57:27.821Z,18.60
2018-05-06T09:00:31.155Z,18.60
2018-05-06T09:03:34.484Z,18.50
2018-05-06T09:06:37.918Z,18.50
2018-05-06T09:09:41.240Z,18.70
2018-05-06T09:12:44.573Z,18.70
2018-05-06T09:15:47.944Z,18.50
2018-05-06T09:18:51.313Z,18.60
2018-05-06T09:21:54.647Z,18.80
2018-05-06T09:24:58.016Z,18.90
2018-05-06T09:28:01.354Z,18.70
2018-05-06T09:31:05.452Z,18.70
2018-05-06T09:34:10.294Z,18.50
2018-05-06T09:37:13.629Z,18.50
2018-05-06T09:40:16.991Z,18.30
2018-05-06T09:43:20.300Z,18.30
2018-05-06T09:46:24.419Z,18.60
2018-05-06T09:49:28.504Z,18.70
2018-05-06T09:52:31.822Z,18.70
2018-05-06T09:55:35.921Z,18.60
2018-05-06T09:58:39.242Z,18.60
2018-05-06T10:01:43.335Z,18.90
2018-05-06T10:31:06.177Z,20.60
2018-05-06T10:34:09.576Z,20.60
2018-05-06T10:37:12.974Z,21.10
2018-05-06T10:40:16.367Z,20.60
2018-05-06T10:43:19.749Z,19.80
2018-05-06T10:46:23.107Z,19.10
2018-05-06T10:49:27.588Z,18.60
2018-05-06T10:52:30.916Z,18.30
2018-05-06T10:55:35.402Z,17.50
2018-05-06T10:58:38.713Z,17.50
2018-05-06T11:01:42.059Z,17.40
2018-05-06T11:04:45.434Z,17.10
2018-05-06T11:07:49.577Z,17.10
2018-05-06T11:10:52.902Z,17.10
2018-05-06T11:13:56.378Z,17.20
2018-05-06T11:16:59.720Z,17.30
2018-05-06T11:20:03.064Z,17.30
2018-05-06T11:23:06.369Z,17.30
2018-05-06T11:26:09.841Z,17.30
2018-05-06T11:29:13.221Z,17.30
2018-05-06T11:32:16.567Z,17.20
2018-05-06T11:35:19.913Z,17.10
2018-05-06T11:38:23.269Z,17.00
2018-05-06T11:41:26.630Z,17.00
2018-05-06T11:44:29.986Z,16.90
2018-05-06T11:47:33.319Z,17.00
2018-05-06T11:50:36.657Z,17.20
2018-05-06T11:53:40.778Z,17.10
2018-05-06T11:56:44.222Z,17.00
2018-05-06T11:59:47.605Z,16.90
2018-05-06T12:02:50.939Z,16.90
2018-05-06T12:05:54.445Z,17.00
2018-05-06T12:08:58.643Z,17.00
2018-05-06T12:12:01.993Z,16.90
2018-05-06T12:15:05.429Z,17.00
2018-05-06T12:18:08.743Z,17.10
2018-05-06T12:21:12.147Z,17.20
2018-05-06T12:24:15.533Z,17.20
2018-05-06T12:27:18.948Z,17.10
2018-05-06T12:30:22.257Z,17.20
2018-05-06T12:33:25.721Z,17.30
2018-05-06T12:36:29.029Z,17.30
2018-05-06T12:39:32.389Z,17.30
2018-05-06T12:42:35.782Z,17.30
2018-05-06T12:45:39.255Z,17.30
2018-05-06T12:48:42.589Z,17.40
2018-05-06T12:51:46.775Z,17.50
2018-05-06T12:54:50.887Z,17.60
2018-05-06T12:57:54.273Z,17.60
2018-05-06T13:00:57.602Z,17.60
2018-05-06T13:04:01.755Z,17.60
2018-05-06T13:07:05.065Z,17.60
2018-05-06T13:10:08.418Z,17.60
2018-05-06T13:13:12.505Z,17.60
2018-05-06T13:16:15.848Z,17.60
2018-05-06T13:19:19.151Z,17.70
2018-05-06T13:22:22.489Z,17.70
2018-05-06T13:25:25.814Z,17.70
2018-05-06T13:28:29.166Z,17.70
2018-05-06T13:31:32.483Z,17.80
2018-05-06T13:34:35.834Z,17.70
2018-05-06T13:37:39.995Z,17.50
2018-05-06T13:40:43.326Z,17.50
2018-05-06T13:43:46.642Z,17.50
2018-05-06T13:46:50.812Z,17.50
2018-05-06T13:49:54.290Z,17.40
2018-05-06T13:52:57.617Z,17.50
2018-05-06T13:56:00.938Z,17.40
2018-05-06T13:59:04.325Z,17.40
2018-05-06T14:02:07.724Z,17.50
2018-05-06T14:05:11.118Z,17.60
2018-05-06T14:08:14.440Z,17.70
2018-05-06T14:11:17.810Z,17.70
2018-05-06T14:14:21.135Z,17.70
2018-05-06T14:17:24.483Z,17.90
2018-05-06T14:20:27.824Z,18.00
2018-05-06T14:23:31.168Z,17.90
2018-05-06T14:26:34.506Z,17.80
2018-05-06T14:29:37.900Z,17.90
2018-05-06T14:32:41.312Z,18.00
2018-05-06T14:35:44.714Z,18.00
2018-05-06T14:38:48.098Z,18.10
2018-05-06T14:41:52.448Z,18.00
2018-05-06T14:44:57.282Z,17.80
2018-05-06T14:48:15.636Z,17.80
2018-05-06T14:51:19.072Z,17.90
2018-05-06T14:54:22.509Z,18.00
2018-05-06T14:57:25.835Z,17.90
2018-05-06T15:00:29.213Z,17.90
2018-05-06T15:03:32.620Z,17.90
2018-05-06T15:06:35.967Z,17.90
2018-05-06T15:09:39.295Z,18.00
2018-05-06T15:12:42.663Z,18.00
2018-05-06T15:15:46.026Z,18.00
2018-05-06T15:18:49.376Z,18.30
2018-05-06T15:21:52.690Z,18.40
2018-05-06T15:24:56.039Z,18.70
2018-05-06T15:28:00.125Z,19.00
2018-05-06T15:31:03.493Z,19.00
2018-05-06T15:34:06.818Z,19.20
2018-05-06T15:37:10.170Z,19.20
2018-05-06T15:40:13.570Z,19.30
2018-05-06T15:43:17.041Z,19.50
2018-05-06T15:46:20.418Z,19.70
2018-05-06T15:49:23.749Z,19.60
2018-05-06T15:52:27.838Z,19.60
2018-05-06T15:55:31.184Z,19.60
2018-05-06T15:58:34.526Z,19.60
2018-05-06T16:01:37.945Z,19.60
2018-05-06T16:04:41.270Z,19.70
2018-05-06T16:07:45.394Z,19.60
2018-05-06T16:10:49.480Z,19.50
2018-05-06T16:13:52.867Z,19.50
2018-05-06T16:16:56.207Z,19.50
2018-05-06T16:19:59.562Z,19.60
2018-05-06T16:23:02.989Z,19.60
2018-05-06T16:26:07.582Z,19.80
2018-05-06T16:29:10.896Z,19.80
2018-05-06T16:32:14.233Z,19.80
2018-05-06T16:35:18.305Z,19.90
2018-05-06T16:38:21.658Z,19.90
2018-05-06T16:41:25.037Z,20.00
2018-05-06T16:44:29.149Z,20.00
2018-05-06T16:47:33.229Z,20.00
2018-05-06T16:50:36.685Z,20.00
2018-05-06T16:53:40.068Z,20.00
2018-05-06T16:56:44.251Z,20.30
2018-05-06T16:59:47.566Z,20.20
2018-05-06T17:02:50.968Z,20.30
2018-05-06T17:05:54.307Z,20.20
2018-05-06T17:08:57.752Z,20.00
2018-05-06T17:12:01.170Z,19.80
2018-05-06T17:15:04.564Z,19.90
2018-05-06T17:18:07.887Z,20.00
2018-05-06T17:21:12.015Z,19.60
2018-05-06T17:24:15.368Z,19.60
2018-05-06T17:27:18.795Z,19.20
2018-05-06T17:30:22.966Z,18.00
2018-05-06T17:33:26.343Z,17.90
2018-05-06T17:36:29.688Z,17.40
2018-05-06T17:39:33.188Z,17.00
2018-05-06T17:42:36.597Z,16.80
2018-05-06T17:45:39.964Z,16.50
2018-05-06T17:48:43.330Z,16.40
2018-05-06T17:51:46.802Z,16.20
2018-05-06T17:54:50.135Z,16.00
2018-05-06T17:57:53.584Z,15.90
2018-05-06T18:00:56.937Z,15.80
2018-05-06T18:04:00.300Z,15.70
2018-05-06T18:07:03.627Z,15.60
2018-05-06T18:10:07.098Z,15.50
2018-05-06T18:13:10.440Z,15.50
2018-05-06T18:16:13.809Z,15.40
2018-05-06T18:19:18.278Z,15.20
2018-05-06T18:22:21.617Z,15.20
2018-05-06T18:25:25.031Z,15.20
2018-05-06T18:28:29.515Z,14.90
2018-05-06T18:31:32.828Z,15.00
2018-05-06T18:34:37.713Z,14.70
2018-05-06T18:37:41.035Z,14.60
2018-05-06T18:40:44.410Z,14.50
2018-05-06T18:43:47.746Z,14.40
2018-05-06T18:46:51.124Z,14.30
2018-05-06T18:49:54.505Z,14.20
2018-05-06T18:52:57.964Z,14.10
2018-05-06T18:56:01.304Z,14.10
2018-05-06T18:59:04.767Z,14.00
2018-05-06T19:02:08.120Z,13.90
2018-05-06T19:05:11.484Z,13.90
2018-05-06T19:08:15.682Z,13.70
2018-05-06T19:11:19.170Z,13.70
2018-05-06T19:14:22.502Z,13.50
2018-05-06T19:17:26.616Z,13.40
2018-05-06T19:20:30.820Z,13.30
2018-05-06T19:23:34.183Z,13.20
2018-05-06T19:26:37.542Z,13.10
2018-05-06T19:29:41.866Z,13.00
2018-05-06T19:32:45.166Z,13.00
2018-05-06T19:35:48.492Z,13.00
2018-05-06T19:38:51.984Z,12.90
2018-05-06T19:41:55.363Z,12.80
2018-05-06T19:44:59.461Z,12.70
2018-05-06T19:48:02.818Z,12.70
2018-05-06T19:51:06.150Z,12.60
2018-05-06T19:54:09.753Z,12.60
2018-05-06T19:57:13.110Z,12.60
2018-05-06T20:00:16.467Z,12.70
2018-05-06T20:03:19.838Z,12.60
2018-05-06T20:06:23.239Z,12.60
2018-05-06T20:09:26.577Z,12.60
2018-05-06T20:12:30.690Z,12.70
2018-05-06T20:15:35.283Z,12.70
2018-05-06T20:18:39.129Z,12.60
2018-05-06T20:21:43.615Z,12.70
2018-05-06T20:24:47.839Z,12.70
2018-05-06T20:27:51.251Z,12.60
2018-05-06T20:30:54.623Z,12.70
2018-05-06T20:33:57.945Z,12.80
2018-05-06T20:37:01.352Z,12.70
2018-05-06T20:40:04.730Z,12.70
2018-05-06T20:43:08.072Z,12.60
2018-05-06T20:46:12.312Z,12.50
2018-05-06T20:49:15.665Z,12.50
2018-05-06T20:52:19.764Z,12.40
2018-05-06T20:55:23.214Z,12.40
2018-05-06T20:58:26.510Z,12.40
2018-05-06T21:01:30.639Z,12.30
2018-05-06T21:04:33.952Z,12.30
2018-05-06T21:07:37.374Z,12.20
2018-05-06T21:10:40.691Z,12.10
2018-05-06T21:13:44.048Z,12.10
2018-05-06T21:16:47.363Z,12.00
2018-05-06T21:19:50.765Z,12.00
2018-05-06T21:22:54.296Z,12.00
2018-05-06T21:25:57.731Z,11.90
2018-05-06T21:29:01.054Z,11.90
2018-05-06T21:32:04.406Z,11.90
2018-05-06T21:35:08.497Z,11.90
2018-05-06T21:38:11.849Z,11.80
2018-05-06T21:41:15.157Z,11.80
2018-05-06T21:44:18.585Z,11.80
2018-05-06T21:47:21.998Z,11.80
2018-05-06T21:50:25.348Z,11.80
2018-05-06T21:53:28.677Z,11.80
2018-05-06T21:56:32.039Z,11.80
2018-05-06T21:59:35.365Z,11.80
2018-05-06T22:02:38.736Z,11.80
2018-05-06T22:05:42.062Z,11.80
2018-05-06T22:08:45.403Z,11.70
2018-05-06T22:11:48.806Z,11.70
2018-05-06T22:14:53.016Z,11.60
2018-05-06T22:17:56.415Z,11.60
2018-05-06T22:20:59.828Z,11.60
2018-05-06T22:24:03.928Z,11.60
2018-05-06T22:27:07.342Z,11.60
2018-05-06T22:30:10.666Z,11.60
2018-05-06T22:33:14.004Z,11.50
2018-05-06T22:36:17.409Z,11.50
2018-05-06T22:39:20.934Z,11.40
2018-05-06T22:42:24.327Z,11.40
2018-05-06T22:45:27.665Z,11.30
2018-05-06T22:48:31.016Z,11.30
2018-05-06T22:51:34.436Z,11.30
2018-05-06T22:54:37.833Z,11.30
2018-05-06T22:57:41.176Z,11.30
2018-05-06T23:00:44.536Z,11.20
2018-05-06T23:03:47.963Z,11.20
2018-05-06T23:06:51.299Z,11.00
2018-05-06T23:09:54.728Z,10.90
2018-05-06T23:12:58.840Z,10.70
2018-05-06T23:16:02.189Z,10.70
2018-05-06T23:19:05.651Z,10.70
2018-05-06T23:22:09.770Z,10.60
2018-05-06T23:25:13.198Z,10.50
2018-05-06T23:28:16.556Z,10.50
2018-05-06T23:31:19.904Z,10.50
2018-05-06T23:34:23.277Z,10.50
2018-05-06T23:37:27.392Z,10.40
2018-05-06T23:40:31.498Z,10.30
2018-05-06T23:43:34.875Z,10.30
2018-05-06T23:46:38.288Z,10.30
2018-05-06T23:49:41.726Z,10.20
2018-05-06T23:52:45.911Z,10.10
2018-05-06T23:55:49.314Z,10.10
2018-05-06T23:58:52.644Z,10.00
